sensor_id;sensor_type;location;lat;lon;timestamp;P1;durP1;ratioP1;P2;durP2;ratioP2
50429;SDS011;36359;41.556;-8.418;2022-12-29T00:02:17;5.50;;;1.77;;
50429;SDS011;36359;41.556;-8.418;2022-12-29T00:04:43;3.20;;;1.35;;
50429;SDS011;36359;41.556;-8.418;2022-12-29T00:07:09;3.63;;;1.33;;
50429;SDS011;36359;41.556;-8.418;2022-12-29T00:09:35;3.08;;;1.50;;
50429;SDS011;36359;41.556;-8.418;2022-12-29T00:12:01;3.33;;;1.10;;
50429;SDS011;36359;41.556;-8.418;2022-12-29T00:14:29;4.07;;;1.30;;
50429;SDS011;36359;41.556;-8.418;2022-12-29T00:17:13;6.68;;;1.27;;
50429;SDS011;36359;41.556;-8.418;2022-12-29T00:19:39;3.50;;;1.58;;
50429;SDS011;36359;41.556;-8.418;2022-12-29T00:22:23;5.90;;;1.40;;
50429;SDS011;36359;41.556;-8.418;2022-12-29T00:25:08;7.88;;;1.40;;
50429;SDS011;36359;41.556;-8.418;2022-12-29T00:27:54;4.40;;;1.25;;
50429;SDS011;36359;41.556;-8.418;2022-12-29T00:30:39;5.60;;;1.30;;
50429;SDS011;36359;41.556;-8.418;2022-12-29T00:33:32;6.63;;;1.30;;
50429;SDS011;36359;41.556;-8.418;2022-12-29T00:36:18;3.33;;;1.50;;
50429;SDS011;36359;41.556;-8.418;2022-12-29T00:38:53;4.35;;;1.27;;
50429;SDS011;36359;41.556;-8.418;2022-12-29T00:41:41;5.15;;;1.55;;
50429;SDS011;36359;41.556;-8.418;2022-12-29T00:44:25;4.18;;;1.15;;
50429;SDS011;36359;41.556;-8.418;2022-12-29T00:46:51;5.22;;;1.45;;
50429;SDS011;36359;41.556;-8.418;2022-12-29T00:49:18;3.40;;;1.05;;
50429;SDS011;36359;41.556;-8.418;2022-12-29T00:51:56;6.50;;;1.30;;
50429;SDS011;36359;41.556;-8.418;2022-12-29T00:54:30;4.07;;;1.55;;
50429;SDS011;36359;41.556;-8.418;2022-12-29T00:56:58;4.35;;;1.58;;
50429;SDS011;36359;41.556;-8.418;2022-12-29T00:59:24;3.08;;;1.20;;
50429;SDS011;36359;41.556;-8.418;2022-12-29T01:01:51;3.28;;;1.05;;
50429;SDS011;36359;41.556;-8.418;2022-12-29T01:04:19;4.38;;;1.17;;
50429;SDS011;36359;41.556;-8.418;2022-12-29T01:06:45;3.20;;;1.20;;
50429;SDS011;36359;41.556;-8.418;2022-12-29T01:09:14;3.30;;;0.90;;
50429;SDS011;36359;41.556;-8.418;2022-12-29T01:11:58;2.30;;;0.93;;
50429;SDS011;36359;41.556;-8.418;2022-12-29T01:14:24;3.30;;;0.95;;
50429;SDS011;36359;41.556;-8.418;2022-12-29T01:16:51;2.50;;;1.10;;
50429;SDS011;36359;41.556;-8.418;2022-12-29T01:19:17;4.28;;;1.20;;
50429;SDS011;36359;41.556;-8.418;2022-12-29T01:21:44;3.40;;;1.30;;
50429;SDS011;36359;41.556;-8.418;2022-12-29T01:24:11;2.85;;;1.20;;
50429;SDS011;36359;41.556;-8.418;2022-12-29T01:26:37;5.25;;;0.98;;
50429;SDS011;36359;41.556;-8.418;2022-12-29T01:29:03;5.32;;;1.00;;
50429;SDS011;36359;41.556;-8.418;2022-12-29T01:31:29;4.15;;;1.30;;
50429;SDS011;36359;41.556;-8.418;2022-12-29T01:33:54;4.53;;;0.95;;
50429;SDS011;36359;41.556;-8.418;2022-12-29T01:36:20;2.80;;;1.05;;
50429;SDS011;36359;41.556;-8.418;2022-12-29T01:38:47;3.65;;;0.80;;
50429;SDS011;36359;41.556;-8.418;2022-12-29T01:41:13;3.92;;;0.63;;
50429;SDS011;36359;41.556;-8.418;2022-12-29T01:46:11;3.42;;;0.80;;
50429;SDS011;36359;41.556;-8.418;2022-12-29T01:48:46;4.43;;;1.02;;
50429;SDS011;36359;41.556;-8.418;2022-12-29T01:51:14;2.83;;;1.10;;
50429;SDS011;36359;41.556;-8.418;2022-12-29T01:53:41;3.90;;;0.70;;
50429;SDS011;36359;41.556;-8.418;2022-12-29T01:56:10;3.72;;;1.10;;
50429;SDS011;36359;41.556;-8.418;2022-12-29T01:58:43;2.53;;;1.15;;
50429;SDS011;36359;41.556;-8.418;2022-12-29T02:01:11;2.65;;;0.73;;
50429;SDS011;36359;41.556;-8.418;2022-12-29T02:03:38;2.15;;;0.80;;
50429;SDS011;36359;41.556;-8.418;2022-12-29T02:06:15;4.85;;;1.30;;
50429;SDS011;36359;41.556;-8.418;2022-12-29T02:08:46;2.60;;;0.77;;
50429;SDS011;36359;41.556;-8.418;2022-12-29T02:11:12;3.20;;;0.80;;
50429;SDS011;36359;41.556;-8.418;2022-12-29T02:13:38;2.72;;;0.52;;
50429;SDS011;36359;41.556;-8.418;2022-12-29T02:29:27;0.98;;;0.20;;
50429;SDS011;36359;41.556;-8.418;2022-12-29T02:32:22;0.88;;;0.20;;
50429;SDS011;36359;41.556;-8.418;2022-12-29T02:46:21;3.47;;;0.60;;
50429;SDS011;36359;41.556;-8.418;2022-12-29T02:49:01;2.28;;;0.30;;
50429;SDS011;36359;41.556;-8.418;2022-12-29T02:51:51;3.40;;;0.65;;
50429;SDS011;36359;41.556;-8.418;2022-12-29T02:54:22;5.05;;;0.70;;
50429;SDS011;36359;41.556;-8.418;2022-12-29T02:59:40;2.03;;;0.70;;
50429;SDS011;36359;41.556;-8.418;2022-12-29T03:02:11;2.55;;;0.30;;
50429;SDS011;36359;41.556;-8.418;2022-12-29T03:11:18;2.20;;;0.20;;
50429;SDS011;36359;41.556;-8.418;2022-12-29T03:14:09;0.90;;;0.40;;
50429;SDS011;36359;41.556;-8.418;2022-12-29T03:17:04;0.93;;;0.10;;
50429;SDS011;36359;41.556;-8.418;2022-12-29T03:19:36;2.30;;;0.50;;
50429;SDS011;36359;41.556;-8.418;2022-12-29T03:22:08;3.22;;;0.60;;
50429;SDS011;36359;41.556;-8.418;2022-12-29T03:25:05;2.10;;;0.43;;
50429;SDS011;36359;41.556;-8.418;2022-12-29T03:27:48;1.42;;;0.40;;
50429;SDS011;36359;41.556;-8.418;2022-12-29T03:30:19;2.47;;;0.50;;
50429;SDS011;36359;41.556;-8.418;2022-12-29T03:32:47;3.78;;;0.50;;
50429;SDS011;36359;41.556;-8.418;2022-12-29T03:35:17;6.37;;;1.07;;
50429;SDS011;36359;41.556;-8.418;2022-12-29T03:37:58;2.60;;;0.50;;
50429;SDS011;36359;41.556;-8.418;2022-12-29T03:40:29;1.95;;;0.45;;
50429;SDS011;36359;41.556;-8.418;2022-12-29T03:42:57;3.53;;;0.63;;
50429;SDS011;36359;41.556;-8.418;2022-12-29T03:45:24;2.75;;;0.70;;
50429;SDS011;36359;41.556;-8.418;2022-12-29T03:47:51;2.72;;;0.50;;
50429;SDS011;36359;41.556;-8.418;2022-12-29T03:50:18;2.85;;;0.68;;
50429;SDS011;36359;41.556;-8.418;2022-12-29T03:52:45;4.05;;;1.23;;
50429;SDS011;36359;41.556;-8.418;2022-12-29T03:55:11;5.53;;;1.48;;
50429;SDS011;36359;41.556;-8.418;2022-12-29T03:57:38;5.95;;;1.20;;
50429;SDS011;36359;41.556;-8.418;2022-12-29T04:00:07;3.55;;;0.60;;
50429;SDS011;36359;41.556;-8.418;2022-12-29T04:02:47;3.13;;;0.50;;
50429;SDS011;36359;41.556;-8.418;2022-12-29T04:05:19;3.83;;;0.60;;
50429;SDS011;36359;41.556;-8.418;2022-12-29T04:07:45;3.58;;;1.00;;
50429;SDS011;36359;41.556;-8.418;2022-12-29T04:10:12;4.90;;;0.93;;
50429;SDS011;36359;41.556;-8.418;2022-12-29T04:12:37;6.70;;;1.73;;
50429;SDS011;36359;41.556;-8.418;2022-12-29T04:15:04;6.72;;;1.60;;
50429;SDS011;36359;41.556;-8.418;2022-12-29T04:17:31;5.47;;;1.20;;
50429;SDS011;36359;41.556;-8.418;2022-12-29T04:19:57;6.22;;;1.95;;
50429;SDS011;36359;41.556;-8.418;2022-12-29T04:22:43;12.27;;;2.30;;
50429;SDS011;36359;41.556;-8.418;2022-12-29T04:25:09;5.28;;;2.13;;
50429;SDS011;36359;41.556;-8.418;2022-12-29T04:27:35;5.82;;;1.83;;
50429;SDS011;36359;41.556;-8.418;2022-12-29T04:30:27;11.45;;;2.85;;
50429;SDS011;36359;41.556;-8.418;2022-12-29T04:33:02;8.73;;;1.95;;
50429;SDS011;36359;41.556;-8.418;2022-12-29T04:35:28;7.47;;;2.20;;
50429;SDS011;36359;41.556;-8.418;2022-12-29T04:37:54;8.73;;;1.77;;
50429;SDS011;36359;41.556;-8.418;2022-12-29T04:40:20;9.40;;;1.90;;
50429;SDS011;36359;41.556;-8.418;2022-12-29T04:42:46;6.22;;;3.65;;
50429;SDS011;36359;41.556;-8.418;2022-12-29T04:45:12;11.75;;;5.75;;
50429;SDS011;36359;41.556;-8.418;2022-12-29T04:47:59;11.98;;;6.10;;
50429;SDS011;36359;41.556;-8.418;2022-12-29T04:50:30;12.77;;;5.20;;
50429;SDS011;36359;41.556;-8.418;2022-12-29T04:53:20;10.90;;;3.03;;
50429;SDS011;36359;41.556;-8.418;2022-12-29T04:55:50;9.93;;;2.65;;
50429;SDS011;36359;41.556;-8.418;2022-12-29T04:58:17;6.68;;;2.03;;
50429;SDS011;36359;41.556;-8.418;2022-12-29T05:00:43;8.32;;;1.60;;
50429;SDS011;36359;41.556;-8.418;2022-12-29T05:03:09;5.95;;;1.83;;
50429;SDS011;36359;41.556;-8.418;2022-12-29T05:05:38;12.27;;;1.60;;
50429;SDS011;36359;41.556;-8.418;2022-12-29T05:08:04;11.98;;;1.90;;
50429;SDS011;36359;41.556;-8.418;2022-12-29T05:10:30;11.55;;;1.63;;
50429;SDS011;36359;41.556;-8.418;2022-12-29T05:12:59;11.38;;;2.20;;
50429;SDS011;36359;41.556;-8.418;2022-12-29T05:15:26;12.88;;;2.30;;
50429;SDS011;36359;41.556;-8.418;2022-12-29T05:17:52;11.27;;;2.13;;
50429;SDS011;36359;41.556;-8.418;2022-12-29T05:20:19;10.65;;;1.85;;
50429;SDS011;36359;41.556;-8.418;2022-12-29T05:22:44;10.85;;;1.73;;
50429;SDS011;36359;41.556;-8.418;2022-12-29T05:25:10;11.20;;;1.60;;
50429;SDS011;36359;41.556;-8.418;2022-12-29T05:27:49;8.20;;;1.33;;
50429;SDS011;36359;41.556;-8.418;2022-12-29T05:30:23;7.72;;;1.33;;
50429;SDS011;36359;41.556;-8.418;2022-12-29T05:32:49;10.30;;;1.70;;
50429;SDS011;36359;41.556;-8.418;2022-12-29T05:35:16;12.20;;;1.80;;
50429;SDS011;36359;41.556;-8.418;2022-12-29T05:37:42;9.90;;;1.48;;
50429;SDS011;36359;41.556;-8.418;2022-12-29T05:40:08;12.38;;;1.85;;
50429;SDS011;36359;41.556;-8.418;2022-12-29T05:42:34;11.23;;;1.67;;
50429;SDS011;36359;41.556;-8.418;2022-12-29T05:45:14;9.85;;;2.20;;
50429;SDS011;36359;41.556;-8.418;2022-12-29T05:48:12;12.25;;;1.85;;
50429;SDS011;36359;41.556;-8.418;2022-12-29T05:50:52;10.45;;;1.20;;
50429;SDS011;36359;41.556;-8.418;2022-12-29T05:53:23;13.80;;;1.75;;
50429;SDS011;36359;41.556;-8.418;2022-12-29T05:55:49;13.38;;;1.80;;
50429;SDS011;36359;41.556;-8.418;2022-12-29T05:58:16;9.10;;;1.17;;
50429;SDS011;36359;41.556;-8.418;2022-12-29T06:00:42;10.75;;;1.60;;
50429;SDS011;36359;41.556;-8.418;2022-12-29T06:03:10;7.03;;;1.30;;
50429;SDS011;36359;41.556;-8.418;2022-12-29T06:05:36;9.88;;;1.35;;
50429;SDS011;36359;41.556;-8.418;2022-12-29T06:08:02;10.20;;;1.63;;
50429;SDS011;36359;41.556;-8.418;2022-12-29T06:10:28;11.45;;;2.42;;
50429;SDS011;36359;41.556;-8.418;2022-12-29T06:13:00;10.68;;;1.27;;
50429;SDS011;36359;41.556;-8.418;2022-12-29T06:15:26;10.60;;;1.85;;
50429;SDS011;36359;41.556;-8.418;2022-12-29T06:17:53;12.27;;;1.73;;
50429;SDS011;36359;41.556;-8.418;2022-12-29T06:20:19;10.02;;;1.85;;
50429;SDS011;36359;41.556;-8.418;2022-12-29T06:22:44;9.25;;;1.92;;
50429;SDS011;36359;41.556;-8.418;2022-12-29T06:25:12;14.55;;;1.67;;
50429;SDS011;36359;41.556;-8.418;2022-12-29T06:27:39;6.38;;;1.02;;
50429;SDS011;36359;41.556;-8.418;2022-12-29T06:30:05;10.23;;;1.90;;
50429;SDS011;36359;41.556;-8.418;2022-12-29T06:32:31;7.07;;;1.60;;
50429;SDS011;36359;41.556;-8.418;2022-12-29T06:35:04;8.10;;;1.58;;
50429;SDS011;36359;41.556;-8.418;2022-12-29T06:37:33;7.18;;;1.30;;
50429;SDS011;36359;41.556;-8.418;2022-12-29T06:40:00;9.82;;;1.70;;
50429;SDS011;36359;41.556;-8.418;2022-12-29T06:42:33;9.13;;;1.95;;
50429;SDS011;36359;41.556;-8.418;2022-12-29T06:45:25;10.98;;;1.58;;
50429;SDS011;36359;41.556;-8.418;2022-12-29T06:47:50;14.05;;;1.95;;
50429;SDS011;36359;41.556;-8.418;2022-12-29T06:50:16;12.80;;;2.30;;
50429;SDS011;36359;41.556;-8.418;2022-12-29T06:52:42;10.15;;;1.80;;
50429;SDS011;36359;41.556;-8.418;2022-12-29T06:55:07;11.15;;;1.95;;
50429;SDS011;36359;41.556;-8.418;2022-12-29T06:57:33;8.20;;;1.92;;
50429;SDS011;36359;41.556;-8.418;2022-12-29T06:59:59;9.25;;;1.95;;
50429;SDS011;36359;41.556;-8.418;2022-12-29T07:02:25;11.85;;;1.90;;
50429;SDS011;36359;41.556;-8.418;2022-12-29T07:04:51;12.02;;;2.10;;
50429;SDS011;36359;41.556;-8.418;2022-12-29T07:07:20;14.45;;;2.90;;
50429;SDS011;36359;41.556;-8.418;2022-12-29T07:09:46;11.00;;;1.42;;
50429;SDS011;36359;41.556;-8.418;2022-12-29T07:12:12;8.38;;;1.77;;
50429;SDS011;36359;41.556;-8.418;2022-12-29T07:14:37;15.27;;;2.40;;
50429;SDS011;36359;41.556;-8.418;2022-12-29T07:17:04;16.50;;;2.85;;
50429;SDS011;36359;41.556;-8.418;2022-12-29T07:19:31;13.48;;;2.30;;
50429;SDS011;36359;41.556;-8.418;2022-12-29T07:21:58;11.25;;;2.03;;
50429;SDS011;36359;41.556;-8.418;2022-12-29T07:24:24;12.30;;;2.40;;
50429;SDS011;36359;41.556;-8.418;2022-12-29T07:26:53;18.10;;;2.60;;
50429;SDS011;36359;41.556;-8.418;2022-12-29T07:29:18;12.50;;;2.70;;
50429;SDS011;36359;41.556;-8.418;2022-12-29T07:31:44;5.88;;;1.08;;
50429;SDS011;36359;41.556;-8.418;2022-12-29T07:34:10;12.50;;;2.28;;
50429;SDS011;36359;41.556;-8.418;2022-12-29T07:36:36;9.65;;;2.30;;
50429;SDS011;36359;41.556;-8.418;2022-12-29T07:39:02;11.43;;;2.03;;
50429;SDS011;36359;41.556;-8.418;2022-12-29T07:41:28;8.45;;;1.38;;
50429;SDS011;36359;41.556;-8.418;2022-12-29T07:43:54;17.08;;;3.30;;
50429;SDS011;36359;41.556;-8.418;2022-12-29T07:46:32;8.48;;;1.80;;
50429;SDS011;36359;41.556;-8.418;2022-12-29T07:48:58;9.70;;;1.77;;
50429;SDS011;36359;41.556;-8.418;2022-12-29T07:51:24;6.93;;;1.35;;
50429;SDS011;36359;41.556;-8.418;2022-12-29T07:53:49;7.85;;;1.42;;
50429;SDS011;36359;41.556;-8.418;2022-12-29T07:56:15;10.07;;;1.80;;
50429;SDS011;36359;41.556;-8.418;2022-12-29T07:58:41;4.13;;;1.23;;
50429;SDS011;36359;41.556;-8.418;2022-12-29T08:01:07;8.13;;;2.53;;
50429;SDS011;36359;41.556;-8.418;2022-12-29T08:03:33;9.27;;;2.83;;
50429;SDS011;36359;41.556;-8.418;2022-12-29T08:05:58;13.40;;;5.22;;
50429;SDS011;36359;41.556;-8.418;2022-12-29T08:08:24;14.48;;;7.35;;
50429;SDS011;36359;41.556;-8.418;2022-12-29T08:10:50;15.50;;;5.63;;
50429;SDS011;36359;41.556;-8.418;2022-12-29T08:13:15;8.85;;;2.15;;
50429;SDS011;36359;41.556;-8.418;2022-12-29T08:15:41;13.00;;;2.38;;
50429;SDS011;36359;41.556;-8.418;2022-12-29T08:18:07;10.25;;;2.17;;
50429;SDS011;36359;41.556;-8.418;2022-12-29T08:20:33;7.97;;;1.35;;
50429;SDS011;36359;41.556;-8.418;2022-12-29T08:22:58;10.20;;;2.22;;
50429;SDS011;36359;41.556;-8.418;2022-12-29T08:25:24;12.90;;;1.95;;
50429;SDS011;36359;41.556;-8.418;2022-12-29T08:27:50;9.88;;;1.55;;
50429;SDS011;36359;41.556;-8.418;2022-12-29T08:30:16;6.60;;;1.50;;
50429;SDS011;36359;41.556;-8.418;2022-12-29T08:32:41;8.95;;;2.33;;
50429;SDS011;36359;41.556;-8.418;2022-12-29T08:35:07;9.82;;;2.28;;
50429;SDS011;36359;41.556;-8.418;2022-12-29T08:37:33;7.95;;;1.88;;
50429;SDS011;36359;41.556;-8.418;2022-12-29T08:39:59;8.05;;;1.52;;
50429;SDS011;36359;41.556;-8.418;2022-12-29T08:42:29;9.60;;;1.92;;
50429;SDS011;36359;41.556;-8.418;2022-12-29T08:44:59;10.40;;;2.70;;
50429;SDS011;36359;41.556;-8.418;2022-12-29T08:47:25;9.10;;;2.15;;
50429;SDS011;36359;41.556;-8.418;2022-12-29T08:49:51;6.25;;;1.88;;
50429;SDS011;36359;41.556;-8.418;2022-12-29T08:52:17;6.93;;;1.77;;
50429;SDS011;36359;41.556;-8.418;2022-12-29T08:54:43;7.25;;;1.67;;
50429;SDS011;36359;41.556;-8.418;2022-12-29T08:57:08;9.93;;;2.63;;
50429;SDS011;36359;41.556;-8.418;2022-12-29T08:59:54;6.38;;;1.50;;
50429;SDS011;36359;41.556;-8.418;2022-12-29T09:02:20;9.10;;;1.58;;
50429;SDS011;36359;41.556;-8.418;2022-12-29T09:04:45;8.85;;;2.13;;
50429;SDS011;36359;41.556;-8.418;2022-12-29T09:07:11;5.90;;;1.35;;
50429;SDS011;36359;41.556;-8.418;2022-12-29T09:09:37;7.30;;;1.65;;
50429;SDS011;36359;41.556;-8.418;2022-12-29T09:12:02;7.53;;;1.65;;
50429;SDS011;36359;41.556;-8.418;2022-12-29T09:14:28;12.15;;;2.03;;
50429;SDS011;36359;41.556;-8.418;2022-12-29T09:16:54;6.88;;;1.85;;
50429;SDS011;36359;41.556;-8.418;2022-12-29T09:19:38;6.85;;;1.90;;
50429;SDS011;36359;41.556;-8.418;2022-12-29T09:22:04;9.00;;;2.00;;
50429;SDS011;36359;41.556;-8.418;2022-12-29T09:26:56;5.60;;;1.50;;
50429;SDS011;36359;41.556;-8.418;2022-12-29T09:29:22;10.35;;;1.92;;
50429;SDS011;36359;41.556;-8.418;2022-12-29T09:31:47;6.63;;;1.40;;
50429;SDS011;36359;41.556;-8.418;2022-12-29T09:34:13;6.65;;;1.70;;
50429;SDS011;36359;41.556;-8.418;2022-12-29T09:36:39;7.25;;;1.27;;
50429;SDS011;36359;41.556;-8.418;2022-12-29T09:39:04;9.43;;;1.83;;
50429;SDS011;36359;41.556;-8.418;2022-12-29T09:41:34;6.82;;;1.83;;
50429;SDS011;36359;41.556;-8.418;2022-12-29T09:46:51;4.25;;;1.15;;
50429;SDS011;36359;41.556;-8.418;2022-12-29T09:51:52;4.00;;;1.00;;
50429;SDS011;36359;41.556;-8.418;2022-12-29T09:57:13;4.65;;;1.30;;
50429;SDS011;36359;41.556;-8.418;2022-12-29T09:59:43;3.53;;;1.00;;
50429;SDS011;36359;41.556;-8.418;2022-12-29T10:04:37;3.88;;;1.15;;
50429;SDS011;36359;41.556;-8.418;2022-12-29T10:07:07;4.57;;;1.60;;
50429;SDS011;36359;41.556;-8.418;2022-12-29T10:09:51;4.15;;;1.30;;
50429;SDS011;36359;41.556;-8.418;2022-12-29T10:18:37;5.18;;;1.77;;
50429;SDS011;36359;41.556;-8.418;2022-12-29T10:21:42;4.97;;;1.63;;
50429;SDS011;36359;41.556;-8.418;2022-12-29T10:24:17;6.55;;;2.22;;
50429;SDS011;36359;41.556;-8.418;2022-12-29T10:26:46;7.55;;;2.00;;
50429;SDS011;36359;41.556;-8.418;2022-12-29T10:29:20;5.97;;;1.60;;
50429;SDS011;36359;41.556;-8.418;2022-12-29T10:31:50;7.00;;;2.00;;
50429;SDS011;36359;41.556;-8.418;2022-12-29T10:34:25;7.00;;;1.65;;
50429;SDS011;36359;41.556;-8.418;2022-12-29T10:36:58;5.43;;;1.38;;
50429;SDS011;36359;41.556;-8.418;2022-12-29T10:39:30;6.53;;;1.75;;
50429;SDS011;36359;41.556;-8.418;2022-12-29T10:42:23;6.13;;;1.90;;
50429;SDS011;36359;41.556;-8.418;2022-12-29T10:44:50;5.30;;;1.77;;
50429;SDS011;36359;41.556;-8.418;2022-12-29T10:47:18;4.60;;;1.52;;
50429;SDS011;36359;41.556;-8.418;2022-12-29T10:49:48;5.43;;;1.70;;
50429;SDS011;36359;41.556;-8.418;2022-12-29T10:52:16;4.72;;;1.88;;
50429;SDS011;36359;41.556;-8.418;2022-12-29T10:54:46;5.87;;;1.97;;
50429;SDS011;36359;41.556;-8.418;2022-12-29T10:57:31;6.65;;;2.33;;
50429;SDS011;36359;41.556;-8.418;2022-12-29T11:00:00;4.72;;;1.58;;
50429;SDS011;36359;41.556;-8.418;2022-12-29T11:08:20;4.93;;;1.50;;
50429;SDS011;36359;41.556;-8.418;2022-12-29T11:10:59;3.22;;;1.20;;
50429;SDS011;36359;41.556;-8.418;2022-12-29T11:13:28;2.78;;;1.50;;
50429;SDS011;36359;41.556;-8.418;2022-12-29T11:15:56;2.85;;;1.25;;
50429;SDS011;36359;41.556;-8.418;2022-12-29T11:18:25;4.55;;;1.52;;
50429;SDS011;36359;41.556;-8.418;2022-12-29T11:21:00;3.90;;;1.33;;
50429;SDS011;36359;41.556;-8.418;2022-12-29T11:23:38;5.10;;;2.03;;
50429;SDS011;36359;41.556;-8.418;2022-12-29T11:26:17;3.53;;;1.40;;
50429;SDS011;36359;41.556;-8.418;2022-12-29T11:28:47;4.75;;;1.90;;
50429;SDS011;36359;41.556;-8.418;2022-12-29T11:31:29;3.42;;;1.38;;
50429;SDS011;36359;41.556;-8.418;2022-12-29T11:33:55;4.97;;;1.38;;
50429;SDS011;36359;41.556;-8.418;2022-12-29T11:36:21;2.72;;;1.30;;
50429;SDS011;36359;41.556;-8.418;2022-12-29T11:38:50;4.65;;;1.70;;
50429;SDS011;36359;41.556;-8.418;2022-12-29T11:41:20;4.97;;;1.75;;
50429;SDS011;36359;41.556;-8.418;2022-12-29T11:43:49;3.13;;;1.00;;
50429;SDS011;36359;41.556;-8.418;2022-12-29T11:46:16;3.00;;;1.20;;
50429;SDS011;36359;41.556;-8.418;2022-12-29T11:48:44;3.00;;;1.20;;
50429;SDS011;36359;41.556;-8.418;2022-12-29T11:51:12;4.28;;;1.50;;
50429;SDS011;36359;41.556;-8.418;2022-12-29T11:53:46;3.33;;;1.02;;
50429;SDS011;36359;41.556;-8.418;2022-12-29T11:56:19;2.58;;;0.90;;
50429;SDS011;36359;41.556;-8.418;2022-12-29T11:58:47;2.20;;;0.90;;
50429;SDS011;36359;41.556;-8.418;2022-12-29T12:01:23;4.00;;;1.20;;
50429;SDS011;36359;41.556;-8.418;2022-12-29T12:06:38;4.10;;;1.30;;
50429;SDS011;36359;41.556;-8.418;2022-12-29T12:12:23;3.75;;;1.33;;
50429;SDS011;36359;41.556;-8.418;2022-12-29T12:14:54;3.30;;;1.25;;
50429;SDS011;36359;41.556;-8.418;2022-12-29T12:17:49;4.68;;;2.05;;
50429;SDS011;36359;41.556;-8.418;2022-12-29T12:20:19;4.50;;;1.75;;
50429;SDS011;36359;41.556;-8.418;2022-12-29T12:28:05;5.53;;;2.45;;
50429;SDS011;36359;41.556;-8.418;2022-12-29T12:30:40;5.70;;;3.10;;
50429;SDS011;36359;41.556;-8.418;2022-12-29T12:49:56;3.45;;;1.58;;
50429;SDS011;36359;41.556;-8.418;2022-12-29T12:52:49;2.70;;;1.65;;
50429;SDS011;36359;41.556;-8.418;2022-12-29T13:25:50;2.85;;;1.10;;
50429;SDS011;36359;41.556;-8.418;2022-12-29T13:33:33;1.85;;;0.75;;
50429;SDS011;36359;41.556;-8.418;2022-12-29T13:36:21;2.30;;;1.08;;
50429;SDS011;36359;41.556;-8.418;2022-12-29T13:38:48;2.95;;;1.70;;
50429;SDS011;36359;41.556;-8.418;2022-12-29T13:41:41;3.45;;;1.35;;
50429;SDS011;36359;41.556;-8.418;2022-12-29T13:44:18;2.20;;;1.20;;
50429;SDS011;36359;41.556;-8.418;2022-12-29T13:46:52;1.92;;;0.80;;
50429;SDS011;36359;41.556;-8.418;2022-12-29T13:49:22;1.70;;;0.88;;
50429;SDS011;36359;41.556;-8.418;2022-12-29T13:51:50;4.13;;;2.10;;
50429;SDS011;36359;41.556;-8.418;2022-12-29T14:00:14;1.88;;;1.10;;
50429;SDS011;36359;41.556;-8.418;2022-12-29T14:07:44;2.53;;;1.30;;
50429;SDS011;36359;41.556;-8.418;2022-12-29T14:10:26;4.18;;;2.90;;
50429;SDS011;36359;41.556;-8.418;2022-12-29T14:15:39;2.90;;;1.65;;
50429;SDS011;36359;41.556;-8.418;2022-12-29T14:20:58;1.77;;;0.98;;
50429;SDS011;36359;41.556;-8.418;2022-12-29T14:23:46;1.73;;;1.10;;
50429;SDS011;36359;41.556;-8.418;2022-12-29T14:26:14;1.67;;;0.90;;
50429;SDS011;36359;41.556;-8.418;2022-12-29T14:28:49;2.75;;;0.95;;
50429;SDS011;36359;41.556;-8.418;2022-12-29T14:33:40;2.35;;;1.08;;
50429;SDS011;36359;41.556;-8.418;2022-12-29T14:36:33;1.02;;;0.60;;
50429;SDS011;36359;41.556;-8.418;2022-12-29T14:39:03;2.28;;;1.13;;
50429;SDS011;36359;41.556;-8.418;2022-12-29T14:49:27;3.40;;;2.20;;
50429;SDS011;36359;41.556;-8.418;2022-12-29T14:52:05;2.97;;;2.10;;
50429;SDS011;36359;41.556;-8.418;2022-12-29T14:57:04;3.25;;;1.42;;
50429;SDS011;36359;41.556;-8.418;2022-12-29T14:59:34;1.60;;;1.10;;
50429;SDS011;36359;41.556;-8.418;2022-12-29T15:02:01;3.85;;;2.00;;
50429;SDS011;36359;41.556;-8.418;2022-12-29T15:04:31;4.05;;;2.97;;
50429;SDS011;36359;41.556;-8.418;2022-12-29T15:06:58;6.30;;;2.40;;
50429;SDS011;36359;41.556;-8.418;2022-12-29T15:09:40;4.55;;;3.33;;
50429;SDS011;36359;41.556;-8.418;2022-12-29T15:15:01;3.53;;;2.38;;
50429;SDS011;36359;41.556;-8.418;2022-12-29T15:17:42;2.78;;;2.22;;
50429;SDS011;36359;41.556;-8.418;2022-12-29T15:23:06;2.78;;;2.05;;
50429;SDS011;36359;41.556;-8.418;2022-12-29T15:28:25;4.93;;;3.20;;
50429;SDS011;36359;41.556;-8.418;2022-12-29T15:30:53;3.65;;;3.25;;
50429;SDS011;36359;41.556;-8.418;2022-12-29T15:33:21;5.65;;;2.70;;
50429;SDS011;36359;41.556;-8.418;2022-12-29T15:35:52;4.00;;;2.63;;
50429;SDS011;36359;41.556;-8.418;2022-12-29T15:38:21;5.85;;;4.03;;
50429;SDS011;36359;41.556;-8.418;2022-12-29T15:41:32;15.18;;;11.38;;
50429;SDS011;36359;41.556;-8.418;2022-12-29T15:46:26;7.75;;;5.38;;
50429;SDS011;36359;41.556;-8.418;2022-12-29T15:48:55;5.63;;;4.82;;
50429;SDS011;36359;41.556;-8.418;2022-12-29T15:51:27;3.53;;;2.53;;
50429;SDS011;36359;41.556;-8.418;2022-12-29T15:53:56;3.45;;;2.17;;
50429;SDS011;36359;41.556;-8.418;2022-12-29T15:56:22;3.45;;;2.60;;
50429;SDS011;36359;41.556;-8.418;2022-12-29T15:58:49;4.78;;;3.08;;
50429;SDS011;36359;41.556;-8.418;2022-12-29T16:01:17;3.25;;;2.30;;
50429;SDS011;36359;41.556;-8.418;2022-12-29T16:04:06;1.50;;;1.35;;
50429;SDS011;36359;41.556;-8.418;2022-12-29T16:06:35;2.25;;;1.55;;
50429;SDS011;36359;41.556;-8.418;2022-12-29T16:11:44;3.67;;;2.17;;
50429;SDS011;36359;41.556;-8.418;2022-12-29T16:14:33;4.15;;;2.72;;
50429;SDS011;36359;41.556;-8.418;2022-12-29T16:17:01;4.95;;;3.30;;
50429;SDS011;36359;41.556;-8.418;2022-12-29T16:19:37;2.90;;;2.22;;
50429;SDS011;36359;41.556;-8.418;2022-12-29T16:22:10;3.63;;;2.13;;
50429;SDS011;36359;41.556;-8.418;2022-12-29T16:24:42;3.80;;;2.58;;
50429;SDS011;36359;41.556;-8.418;2022-12-29T16:29:40;3.83;;;3.40;;
50429;SDS011;36359;41.556;-8.418;2022-12-29T16:34:52;3.92;;;3.08;;
50429;SDS011;36359;41.556;-8.418;2022-12-29T16:37:42;9.77;;;7.35;;
50429;SDS011;36359;41.556;-8.418;2022-12-29T16:40:28;15.13;;;9.90;;
50429;SDS011;36359;41.556;-8.418;2022-12-29T16:43:01;19.67;;;13.45;;
50429;SDS011;36359;41.556;-8.418;2022-12-29T16:48:16;12.85;;;9.80;;
50429;SDS011;36359;41.556;-8.418;2022-12-29T16:50:45;15.30;;;13.65;;
50429;SDS011;36359;41.556;-8.418;2022-12-29T16:53:19;9.55;;;7.50;;
50429;SDS011;36359;41.556;-8.418;2022-12-29T16:55:49;10.98;;;9.00;;
50429;SDS011;36359;41.556;-8.418;2022-12-29T16:58:26;8.30;;;6.55;;
50429;SDS011;36359;41.556;-8.418;2022-12-29T17:00:57;11.48;;;9.10;;
50429;SDS011;36359;41.556;-8.418;2022-12-29T17:03:29;10.88;;;8.60;;
50429;SDS011;36359;41.556;-8.418;2022-12-29T17:06:00;8.60;;;7.60;;
50429;SDS011;36359;41.556;-8.418;2022-12-29T17:08:26;5.90;;;4.45;;
50429;SDS011;36359;41.556;-8.418;2022-12-29T17:10:53;6.95;;;6.25;;
50429;SDS011;36359;41.556;-8.418;2022-12-29T17:13:39;7.97;;;7.00;;
50429;SDS011;36359;41.556;-8.418;2022-12-29T17:16:05;8.32;;;7.43;;
50429;SDS011;36359;41.556;-8.418;2022-12-29T17:18:33;8.65;;;7.75;;
50429;SDS011;36359;41.556;-8.418;2022-12-29T17:20:59;9.77;;;8.77;;
50429;SDS011;36359;41.556;-8.418;2022-12-29T17:23:25;10.23;;;8.75;;
50429;SDS011;36359;41.556;-8.418;2022-12-29T17:25:51;13.40;;;11.35;;
50429;SDS011;36359;41.556;-8.418;2022-12-29T17:28:23;11.00;;;9.90;;
50429;SDS011;36359;41.556;-8.418;2022-12-29T17:30:51;13.85;;;11.95;;
50429;SDS011;36359;41.556;-8.418;2022-12-29T17:33:19;12.15;;;10.25;;
50429;SDS011;36359;41.556;-8.418;2022-12-29T17:35:45;11.43;;;10.13;;
50429;SDS011;36359;41.556;-8.418;2022-12-29T17:40:43;8.48;;;6.22;;
50429;SDS011;36359;41.556;-8.418;2022-12-29T17:43:10;8.25;;;6.93;;
50429;SDS011;36359;41.556;-8.418;2022-12-29T17:45:39;6.55;;;4.97;;
50429;SDS011;36359;41.556;-8.418;2022-12-29T17:48:12;6.45;;;4.45;;
50429;SDS011;36359;41.556;-8.418;2022-12-29T17:50:39;3.50;;;3.17;;
50429;SDS011;36359;41.556;-8.418;2022-12-29T17:53:09;5.47;;;3.97;;